Time,TemperatureF,DewpointF,PressureIn,WindDirection,WindDirectionDegrees,WindSpeedMPH,WindSpeedGustMPH,Humidity,HourlyPrecipIn,Conditions,Clouds,dailyrainin,SolarRadiationWatts/m^2,SoftwareType,DateUTC
2013-06-02 00:00:00,61.0,60.0,-100.00,SSW,202,3.0,-999.0,98,0.03,,,-99.99,0.000000,,2013-06-02 04:00:00,
2013-06-02 00:33:00,61.0,60.0,-100.00,SSW,202,3.0,-999.0,98,0.03,,,-99.99,0.000000,,2013-06-02 04:33:00,
2013-06-02 00:42:00,61.0,60.0,-100.00,SSW,202,3.0,-999.0,98,0.03,,,-99.99,0.000000,,2013-06-02 04:42:00,
2013-06-02 00:53:00,61.0,60.0,-100.00,SSW,202,3.0,-999.0,98,0.03,,,-99.99,0.000000,,2013-06-02 04:53:00,
2013-06-02 02:00:00,61.0,61.0,-100.00,SSW,202,5.0,-999.0,101,-99.99,,,-99.99,0.000000,,2013-06-02 06:00:00,
2013-06-02 02:32:00,61.0,61.0,-100.00,SSW,202,5.0,-999.0,101,-99.99,,,-99.99,0.000000,,2013-06-02 06:32:00,
2013-06-02 02:42:00,61.0,61.0,-100.00,SSW,202,5.0,-999.0,101,-99.99,,,-99.99,0.000000,,2013-06-02 06:42:00,
2013-06-02 02:52:00,61.0,61.0,-100.00,SSW,202,5.0,-999.0,101,-99.99,,,-99.99,0.000000,,2013-06-02 06:52:00,
2013-06-02 03:00:00,62.0,62.0,-100.00,SW,225,6.0,-999.0,100,0.02,,,-99.99,0.000000,,2013-06-02 07:00:00,
2013-06-02 03:32:00,62.0,62.0,-100.00,SW,225,6.0,-999.0,100,0.02,,,-99.99,0.000000,,2013-06-02 07:32:00,
2013-06-02 03:42:00,62.0,62.0,-100.00,SW,225,6.0,-999.0,100,0.02,,,-99.99,0.000000,,2013-06-02 07:42:00,
2013-06-02 03:52:00,62.0,62.0,-100.00,SW,225,6.0,-999.0,100,0.02,,,-99.99,0.000000,,2013-06-02 07:52:00,
2013-06-02 04:00:00,62.0,61.0,-100.00,WSW,247,6.0,-999.0,97,-99.99,,,-99.99,0.000000,,2013-06-02 08:00:00,
2013-06-02 04:32:00,62.0,61.0,-100.00,WSW,247,6.0,-999.0,97,-99.99,,,-99.99,0.000000,,2013-06-02 08:32:00,
2013-06-02 04:42:00,62.0,61.0,-100.00,WSW,247,6.0,-999.0,97,-99.99,,,-99.99,0.000000,,2013-06-02 08:42:00,
2013-06-02 04:52:00,62.0,61.0,-100.00,WSW,247,6.0,-999.0,97,-99.99,,,-99.99,0.000000,,2013-06-02 08:52:00,
2013-06-02 06:00:00,61.0,59.0,-100.00,WSW,247,6.0,-999.0,95,-99.99,,,-99.99,0.000000,,2013-06-02 10:00:00,
2013-06-02 06:33:00,61.0,59.0,-100.00,WSW,247,6.0,-999.0,95,-99.99,,,-99.99,0.000000,,2013-06-02 10:33:00,
2013-06-02 06:42:00,61.0,59.0,-100.00,WSW,247,6.0,-999.0,95,-99.99,,,-99.99,0.000000,,2013-06-02 10:42:00,
2013-06-02 06:52:00,61.0,59.0,-100.00,WSW,247,6.0,-999.0,95,-99.99,,,-99.99,0.000000,,2013-06-02 10:52:00,
2013-06-02 08:00:00,53.0,53.0,-100.00,NW,315,11.0,-999.0,97,-99.99,,,-99.99,27.840000,,2013-06-02 12:00:00,
2013-06-02 08:32:00,53.0,53.0,-100.00,NW,315,11.0,-999.0,97,-99.99,,,-99.99,27.840000,,2013-06-02 12:32:00,
2013-06-02 08:42:00,53.0,53.0,-100.00,NW,315,11.0,-999.0,97,-99.99,,,-99.99,27.840000,,2013-06-02 12:42:00,
2013-06-02 08:52:00,53.0,53.0,-100.00,NW,315,11.0,-999.0,97,-99.99,,,-99.99,27.840000,,2013-06-02 12:52:00,
2013-06-02 10:00:00,50.0,47.0,-100.00,NNW,337,12.0,-999.0,90,-99.99,,,-99.99,233.160004,,2013-06-02 14:00:00,
2013-06-02 10:32:00,50.0,47.0,-100.00,NNW,337,12.0,-999.0,90,-99.99,,,-99.99,233.160004,,2013-06-02 14:32:00,
2013-06-02 10:42:00,50.0,47.0,-100.00,NNW,337,12.0,-999.0,90,-99.99,,,-99.99,233.160004,,2013-06-02 14:42:00,
2013-06-02 10:52:00,50.0,47.0,-100.00,NNW,337,12.0,-999.0,90,-99.99,,,-99.99,233.160004,,2013-06-02 14:52:00,
2013-06-02 11:00:00,52.0,47.0,-100.00,NW,315,12.0,-999.0,82,-99.99,,,-99.99,408.320007,,2013-06-02 15:00:00,
2013-06-02 11:33:00,52.0,47.0,-100.00,NW,315,12.0,-999.0,82,-99.99,,,-99.99,408.320007,,2013-06-02 15:33:00,
2013-06-02 11:43:00,52.0,47.0,-100.00,NW,315,12.0,-999.0,82,-99.99,,,-99.99,408.320007,,2013-06-02 15:43:00,
2013-06-02 11:53:00,52.0,47.0,-100.00,NW,315,12.0,-999.0,82,-99.99,,,-99.99,408.320007,,2013-06-02 15:53:00,
2013-06-02 14:00:00,53.0,44.0,-100.00,NNW,337,13.0,-999.0,71,-99.99,,,-99.99,677.440002,,2013-06-02 18:00:00,
2013-06-02 14:32:00,53.0,44.0,-100.00,NNW,337,13.0,-999.0,71,-99.99,,,-99.99,677.440002,,2013-06-02 18:32:00,
2013-06-02 14:42:00,53.0,44.0,-100.00,NNW,337,13.0,-999.0,71,-99.99,,,-99.99,677.440002,,2013-06-02 18:42:00,
2013-06-02 14:52:00,53.0,44.0,-100.00,NNW,337,13.0,-999.0,71,-99.99,,,-99.99,677.440002,,2013-06-02 18:52:00,
2013-06-02 16:00:00,55.0,43.0,-100.00,NW,315,13.0,-999.0,65,-99.99,,,-99.99,647.280029,,2013-06-02 20:00:00,
2013-06-02 16:32:00,55.0,43.0,-100.00,NW,315,13.0,-999.0,65,-99.99,,,-99.99,647.280029,,2013-06-02 20:32:00,
2013-06-02 16:42:00,55.0,43.0,-100.00,NW,315,13.0,-999.0,65,-99.99,,,-99.99,647.280029,,2013-06-02 20:42:00,
2013-06-02 16:52:00,55.0,43.0,-100.00,NW,315,13.0,-999.0,65,-99.99,,,-99.99,647.280029,,2013-06-02 20:52:00,
2013-06-02 17:00:00,54.0,43.0,-100.00,WNW,292,12.0,-999.0,65,-99.99,,,-99.99,484.880005,,2013-06-02 21:00:00,
2013-06-02 17:33:00,54.0,43.0,-100.00,WNW,292,12.0,-999.0,65,-99.99,,,-99.99,484.880005,,2013-06-02 21:33:00,
2013-06-02 17:43:00,54.0,43.0,-100.00,WNW,292,12.0,-999.0,65,-99.99,,,-99.99,484.880005,,2013-06-02 21:43:00,
2013-06-02 17:53:00,54.0,43.0,-100.00,WNW,292,12.0,-999.0,65,-99.99,,,-99.99,484.880005,,2013-06-02 21:53:00,
2013-06-02 19:00:00,53.0,41.0,-100.00,NW,315,11.0,-999.0,65,-99.99,,,-99.99,370.040009,,2013-06-02 23:00:00,
2013-06-02 19:32:00,53.0,41.0,-100.00,NW,315,11.0,-999.0,65,-99.99,,,-99.99,370.040009,,2013-06-02 23:32:00,
2013-06-02 19:43:00,53.0,41.0,-100.00,NW,315,11.0,-999.0,65,-99.99,,,-99.99,370.040009,,2013-06-02 23:43:00,
2013-06-02 19:52:00,53.0,41.0,-100.00,NW,315,11.0,-999.0,65,-99.99,,,-99.99,370.040009,,2013-06-02 23:52:00,
2013-06-02 21:00:00,50.0,41.0,-100.00,NW,315,7.0,-999.0,73,-99.99,,,-99.99,83.519997,,2013-06-03 01:00:00,
2013-06-02 21:32:00,50.0,41.0,-100.00,NW,315,7.0,-999.0,73,-99.99,,,-99.99,83.519997,,2013-06-03 01:32:00,
2013-06-02 21:42:00,50.0,41.0,-100.00,NW,315,7.0,-999.0,73,-99.99,,,-99.99,83.519997,,2013-06-03 01:42:00,
2013-06-02 21:52:00,50.0,41.0,-100.00,NW,315,7.0,-999.0,73,-99.99,,,-99.99,83.519997,,2013-06-03 01:52:00,
2013-06-02 22:00:00,45.0,42.0,-100.00,NW,315,3.0,-999.0,86,-99.99,,,-99.99,2.320000,,2013-06-03 02:00:00,
2013-06-02 22:32:00,45.0,42.0,-100.00,NW,315,3.0,-999.0,86,-99.99,,,-99.99,2.320000,,2013-06-03 02:32:00,
2013-06-02 22:42:00,45.0,42.0,-100.00,NW,315,3.0,-999.0,86,-99.99,,,-99.99,2.320000,,2013-06-03 02:42:00,
2013-06-02 22:52:00,45.0,42.0,-100.00,NW,315,3.0,-999.0,86,-99.99,,,-99.99,2.320000,,2013-06-03 02:52:00,
2013-06-02 23:00:00,43.0,42.0,-100.00,NW,315,2.0,-999.0,96,-99.99,,,-99.99,0.000000,,2013-06-03 03:00:00,
2013-06-02 23:33:00,43.0,42.0,-100.00,NW,315,2.0,-999.0,96,-99.99,,,-99.99,0.000000,,2013-06-03 03:33:00,
2013-06-02 23:43:00,43.0,42.0,-100.00,NW,315,2.0,-999.0,96,-99.99,,,-99.99,0.000000,,2013-06-03 03:43:00,
2013-06-02 23:53:00,43.0,42.0,-100.00,NW,315,2.0,-999.0,96,-99.99,,,-99.99,0.000000,,2013-06-03 03:53:00,